createdAt,value
2022-10-05T00:00:53.733Z,26.80
2022-10-05T00:03:23.024Z,26.82
2022-10-05T00:05:50.529Z,26.86
2022-10-05T00:08:24.050Z,26.88
2022-10-05T00:10:51.563Z,26.89
2022-10-05T00:13:28.297Z,26.90
2022-10-05T00:16:05.268Z,26.91
2022-10-05T00:18:33.104Z,26.92
2022-10-05T00:21:00.346Z,26.92
2022-10-05T00:23:31.221Z,26.92
2022-10-05T00:26:11.682Z,26.92
2022-10-05T00:28:40.527Z,26.79
2022-10-05T00:31:25.885Z,26.78
2022-10-05T00:33:53.253Z,26.79
2022-10-05T00:36:20.212Z,26.79
2022-10-05T00:38:47.476Z,26.76
2022-10-05T00:42:09.951Z,26.71
2022-10-05T00:44:43.530Z,26.67
2022-10-05T00:47:33.595Z,26.68
2022-10-05T00:50:35.939Z,26.63
2022-10-05T00:53:24.396Z,26.65
2022-10-05T00:56:12.524Z,26.68
2022-10-05T00:59:07.434Z,26.68
2022-10-05T01:01:43.613Z,26.65
2022-10-05T01:04:29.530Z,26.64
2022-10-05T01:07:20.935Z,26.65
2022-10-05T01:10:12.336Z,26.68
2022-10-05T01:12:45.451Z,26.71
2022-10-05T01:15:42.266Z,26.71
2022-10-05T01:18:16.878Z,26.71
2022-10-05T01:20:52.988Z,26.71
2022-10-05T01:23:44.606Z,26.73
2022-10-05T01:26:14.591Z,26.70
2022-10-05T01:28:56.425Z,26.71
2022-10-05T01:31:58.589Z,26.74
2022-10-05T01:34:25.784Z,26.71
2022-10-05T01:37:24.252Z,26.69
2022-10-05T01:40:28.283Z,26.72
2022-10-05T01:43:21.568Z,26.73
2022-10-05T01:46:06.781Z,26.75
2022-10-05T01:48:37.860Z,26.76
2022-10-05T01:51:13.241Z,26.78
2022-10-05T01:54:34.280Z,26.82
2022-10-05T01:57:16.517Z,26.82
2022-10-05T01:59:58.479Z,26.83
2022-10-05T02:02:29.207Z,26.82
2022-10-05T02:05:11.598Z,26.83
2022-10-05T02:08:00.717Z,26.83
2022-10-05T02:10:38.631Z,26.85
2022-10-05T02:13:28.247Z,26.83
2022-10-05T02:16:01.018Z,26.83
2022-10-05T02:18:33.003Z,26.84
2022-10-05T02:21:02.060Z,26.84
2022-10-05T02:23:33.825Z,26.81
2022-10-05T02:26:02.177Z,26.82
2022-10-05T02:28:41.803Z,26.82
2022-10-05T02:31:22.756Z,26.80
2022-10-05T02:33:49.882Z,26.77
2022-10-05T02:36:37.175Z,26.77
2022-10-05T02:39:13.027Z,26.76
2022-10-05T02:42:09.141Z,26.76
2022-10-05T02:44:54.710Z,26.76
2022-10-05T02:47:47.859Z,26.72
2022-10-05T02:50:27.306Z,26.73
2022-10-05T02:53:29.901Z,26.69
2022-10-05T02:55:59.708Z,26.67
2022-10-05T02:58:31.139Z,26.54
2022-10-05T03:01:21.253Z,26.49
2022-10-05T03:03:55.953Z,26.53
2022-10-05T03:06:35.399Z,26.56
2022-10-05T03:09:05.962Z,26.58
2022-10-05T03:11:39.218Z,26.58
2022-10-05T03:14:12.665Z,26.59
2022-10-05T03:16:58.265Z,26.57
2022-10-05T03:19:50.152Z,26.58
2022-10-05T03:22:49.838Z,26.48
2022-10-05T03:25:22.753Z,26.48
2022-10-05T03:28:00.521Z,26.45
2022-10-05T03:30:33.051Z,26.43
2022-10-05T03:33:08.711Z,26.42
2022-10-05T03:36:13.579Z,26.41
2022-10-05T03:38:54.167Z,26.38
2022-10-05T03:41:36.942Z,26.37
2022-10-05T03:44:22.687Z,26.38
2022-10-05T03:47:03.270Z,26.40
2022-10-05T03:49:48.793Z,26.44
2022-10-05T03:52:22.349Z,26.45
2022-10-05T03:54:49.258Z,26.46
2022-10-05T03:57:23.555Z,26.46
2022-10-05T04:00:04.707Z,26.45
2022-10-05T04:02:33.699Z,26.47
2022-10-05T04:05:31.134Z,26.49
2022-10-05T04:07:58.083Z,26.46
2022-10-05T04:10:31.687Z,26.46
2022-10-05T04:13:01.670Z,26.46
2022-10-05T04:15:41.906Z,26.44
2022-10-05T04:18:34.432Z,26.44
2022-10-05T04:21:10.903Z,26.45
2022-10-05T04:24:01.146Z,26.48
2022-10-05T04:26:50.072Z,26.49
2022-10-05T04:29:33.048Z,26.47
2022-10-05T04:32:28.135Z,26.48
2022-10-05T04:35:24.100Z,26.47
2022-10-05T04:38:09.755Z,26.47
2022-10-05T04:40:41.964Z,26.48
2022-10-05T04:43:37.005Z,26.49
2022-10-05T04:46:06.897Z,26.44
2022-10-05T04:49:19.164Z,26.42
2022-10-05T04:52:12.313Z,26.37
2022-10-05T04:54:57.198Z,26.24
2022-10-05T04:57:57.051Z,26.13
2022-10-05T05:00:26.170Z,26.10
2022-10-05T05:03:04.178Z,26.05
2022-10-05T05:06:18.007Z,25.95
2022-10-05T05:09:10.430Z,25.94
2022-10-05T05:11:55.551Z,25.90
2022-10-05T05:15:07.438Z,25.84
2022-10-05T05:17:55.091Z,25.84
2022-10-05T05:20:45.974Z,25.89
2022-10-05T05:23:22.647Z,25.93
2022-10-05T05:26:07.201Z,25.95
2022-10-05T05:29:02.888Z,25.99
2022-10-05T05:31:35.906Z,26.04
2022-10-05T05:34:18.314Z,26.08
2022-10-05T05:36:57.854Z,26.13
2022-10-05T05:39:29.820Z,26.16
2022-10-05T05:42:01.472Z,26.20
2022-10-05T05:44:38.734Z,26.26
2022-10-05T05:47:28.639Z,26.30
2022-10-05T05:50:07.393Z,26.33
2022-10-05T05:52:51.958Z,26.34
2022-10-05T05:55:24.352Z,26.35
2022-10-05T05:58:17.598Z,26.36
2022-10-05T06:01:32.861Z,26.39
2022-10-05T06:04:09.556Z,26.39
2022-10-05T06:06:40.539Z,26.42
2022-10-05T06:09:35.486Z,26.43
2022-10-05T06:12:18.929Z,26.43
2022-10-05T06:14:53.315Z,26.41
2022-10-05T06:17:27.344Z,26.41
2022-10-05T06:20:04.920Z,26.40
2022-10-05T06:22:41.141Z,26.40
2022-10-05T06:25:15.213Z,26.40
2022-10-05T06:28:16.397Z,26.43
2022-10-05T06:30:58.817Z,26.47
2022-10-05T06:33:49.532Z,26.45
2022-10-05T06:36:38.937Z,26.44
2022-10-05T06:39:18.015Z,26.43
2022-10-05T06:42:01.940Z,26.46
2022-10-05T06:44:49.560Z,26.45
2022-10-05T06:47:52.099Z,26.46
2022-10-05T06:50:48.165Z,26.49
2022-10-05T06:53:33.181Z,26.52
2022-10-05T06:56:27.593Z,26.58
2022-10-05T06:59:20.633Z,26.63
2022-10-05T07:01:55.266Z,26.65
2022-10-05T07:04:37.187Z,26.67
2022-10-05T07:07:16.840Z,26.69
2022-10-05T07:10:24.354Z,26.66
2022-10-05T07:12:54.398Z,26.67
2022-10-05T07:15:46.651Z,26.68
2022-10-05T07:18:50.885Z,26.71
2022-10-05T07:21:55.289Z,26.72
2022-10-05T07:24:32.831Z,26.73
2022-10-05T07:27:23.011Z,26.76
2022-10-05T07:30:10.507Z,26.74
2022-10-05T07:32:45.547Z,26.73
2022-10-05T07:36:03.482Z,26.75
2022-10-05T07:38:37.736Z,26.73
2022-10-05T07:41:31.220Z,26.76
2022-10-05T07:44:16.374Z,26.80
2022-10-05T07:46:47.347Z,26.85
2022-10-05T07:49:25.875Z,26.88
2022-10-05T07:51:57.503Z,26.87
2022-10-05T07:54:33.684Z,26.89
2022-10-05T07:57:27.383Z,26.91
2022-10-05T08:00:06.514Z,26.95
2022-10-05T08:02:58.541Z,26.99
2022-10-05T08:05:58.959Z,27.01
2022-10-05T08:08:25.940Z,27.01
2022-10-05T08:11:13.964Z,27.01
2022-10-05T08:13:55.520Z,27.05
2022-10-05T08:16:27.349Z,27.08
2022-10-05T08:19:03.376Z,27.13
2022-10-05T08:22:00.706Z,27.15
2022-10-05T08:24:30.649Z,27.18
2022-10-05T08:27:07.077Z,27.21
2022-10-05T08:30:04.023Z,27.23
2022-10-05T08:33:01.969Z,27.25
2022-10-05T08:35:39.550Z,27.27
2022-10-05T08:38:29.149Z,27.28
2022-10-05T08:41:17.110Z,27.33
2022-10-05T08:43:55.297Z,27.34
2022-10-05T08:46:34.443Z,27.35
2022-10-05T08:49:23.225Z,27.38
2022-10-05T08:52:29.323Z,27.42
2022-10-05T08:55:23.259Z,27.42
2022-10-05T08:58:03.682Z,27.45
2022-10-05T09:01:04.955Z,27.51
2022-10-05T09:03:43.876Z,27.53
2022-10-05T09:06:26.882Z,27.57
2022-10-05T09:09:04.911Z,27.64
2022-10-05T09:11:40.901Z,27.70
2022-10-05T09:14:43.184Z,27.74
2022-10-05T09:17:39.330Z,27.72
2022-10-05T09:20:27.599Z,27.74
2022-10-05T09:23:00.273Z,27.67
2022-10-05T09:25:55.138Z,27.66
2022-10-05T09:28:34.716Z,27.65
2022-10-05T09:31:25.578Z,27.63
2022-10-05T09:34:37.285Z,27.65
2022-10-05T09:37:22.778Z,27.57
2022-10-05T09:40:04.610Z,27.50
2022-10-05T09:43:02.247Z,27.41
2022-10-05T09:45:53.994Z,27.50
2022-10-05T09:49:02.607Z,27.59
2022-10-05T09:51:53.718Z,27.63
2022-10-05T09:55:03.152Z,27.76
2022-10-05T09:57:50.861Z,27.86
2022-10-05T10:00:23.458Z,27.95
2022-10-05T10:03:16.522Z,27.94
2022-10-05T10:06:11.501Z,27.94
2022-10-05T10:08:38.475Z,27.91
2022-10-05T10:11:17.559Z,27.93
2022-10-05T10:14:10.872Z,27.93
2022-10-05T10:17:02.121Z,27.81
2022-10-05T10:19:29.215Z,27.82
2022-10-05T10:22:12.370Z,27.86
2022-10-05T10:25:02.078Z,27.81
2022-10-05T10:28:07.375Z,27.76
2022-10-05T10:30:55.014Z,27.66
2022-10-05T10:34:04.114Z,27.56
2022-10-05T10:37:11.346Z,27.54
2022-10-05T10:40:00.254Z,27.56
2022-10-05T10:42:38.262Z,27.60
2022-10-05T10:45:20.092Z,27.65
2022-10-05T10:47:55.766Z,27.64
2022-10-05T10:50:32.949Z,27.71
2022-10-05T10:53:47.245Z,27.76
2022-10-05T10:56:49.492Z,27.78
2022-10-05T10:59:35.556Z,27.79
2022-10-05T11:02:02.570Z,27.84
2022-10-05T11:04:48.366Z,27.88
2022-10-05T11:07:44.336Z,27.94
2022-10-05T11:10:32.568Z,28.01
2022-10-05T11:13:02.151Z,27.97
2022-10-05T11:15:38.191Z,27.89
2022-10-05T11:18:26.679Z,27.70
2022-10-05T11:21:02.557Z,27.53
2022-10-05T11:23:44.203Z,27.40
2022-10-05T11:26:53.463Z,27.31
2022-10-05T11:29:32.699Z,27.19
2022-10-05T11:32:21.365Z,27.19
2022-10-05T11:35:03.581Z,27.26
2022-10-05T11:37:36.593Z,27.37
2022-10-05T11:40:21.987Z,27.39
2022-10-05T11:43:17.141Z,27.35
2022-10-05T11:46:09.011Z,27.48
2022-10-05T11:49:00.780Z,27.53
2022-10-05T11:51:34.625Z,27.49
2022-10-05T11:55:16.190Z,27.53
2022-10-05T11:57:51.095Z,27.50
2022-10-05T12:00:19.822Z,27.62
2022-10-05T12:03:24.304Z,27.55
2022-10-05T12:06:25.880Z,27.54
2022-10-05T12:09:17.703Z,27.67
2022-10-05T12:11:57.910Z,27.73
2022-10-05T12:14:44.991Z,27.71
2022-10-05T12:17:40.999Z,27.81
2022-10-05T12:20:21.299Z,27.86
2022-10-05T12:22:55.859Z,27.86
2022-10-05T12:25:50.276Z,27.76
2022-10-05T12:28:23.217Z,27.85
2022-10-05T12:31:18.627Z,27.79
2022-10-05T12:34:12.193Z,27.82
2022-10-05T12:37:10.200Z,27.74
2022-10-05T12:39:51.073Z,27.90
2022-10-05T12:42:40.808Z,27.94
2022-10-05T12:45:24.396Z,27.99
2022-10-05T12:48:14.623Z,27.75
2022-10-05T12:50:43.555Z,27.70
2022-10-05T12:53:41.374Z,27.82
2022-10-05T12:56:08.421Z,27.93
2022-10-05T12:58:54.040Z,27.91
2022-10-05T13:01:27.046Z,27.86
2022-10-05T13:03:57.009Z,27.88
2022-10-05T13:06:55.763Z,27.87
2022-10-05T13:09:41.577Z,27.96
2022-10-05T13:12:21.096Z,28.07
2022-10-05T13:15:26.794Z,28.10
2022-10-05T13:17:54.069Z,28.02
2022-10-05T13:20:39.445Z,27.82
2022-10-05T13:23:35.119Z,27.76
2022-10-05T13:26:04.294Z,27.78
2022-10-05T13:28:34.356Z,27.74
2022-10-05T13:31:24.037Z,27.64
2022-10-05T13:33:51.043Z,27.73
2022-10-05T13:36:36.360Z,27.82
2022-10-05T13:39:27.712Z,27.84
2022-10-05T13:42:04.117Z,27.90
2022-10-05T13:44:48.666Z,27.95
2022-10-05T13:47:22.441Z,27.96
2022-10-05T13:50:18.516Z,27.97
2022-10-05T13:52:57.047Z,27.94
2022-10-05T13:55:45.405Z,28.03
2022-10-05T13:58:31.521Z,28.26
2022-10-05T14:01:08.150Z,28.39
2022-10-05T14:03:37.416Z,28.50
2022-10-05T14:06:27.859Z,28.65
2022-10-05T14:08:55.371Z,28.61
2022-10-05T14:11:31.662Z,28.63
2022-10-05T14:14:15.172Z,28.67
2022-10-05T14:16:52.279Z,28.65
2022-10-05T14:19:23.929Z,28.69
2022-10-05T14:22:02.703Z,28.57
2022-10-05T14:24:44.105Z,28.64
2022-10-05T14:27:23.707Z,28.77
2022-10-05T14:29:58.314Z,28.71
2022-10-05T14:32:27.609Z,28.75
2022-10-05T14:35:16.156Z,28.87
2022-10-05T14:38:16.459Z,28.93
2022-10-05T14:40:43.568Z,28.98
2022-10-05T14:43:16.362Z,29.07
2022-10-05T14:45:55.474Z,29.01
2022-10-05T14:48:23.176Z,28.98
2022-10-05T14:50:59.625Z,28.95
2022-10-05T14:53:39.221Z,28.84
2022-10-05T14:56:25.002Z,28.91
2022-10-05T14:59:14.406Z,29.03
2022-10-05T15:01:52.198Z,29.12
2022-10-05T15:04:43.192Z,29.13
2022-10-05T15:07:24.793Z,29.14
2022-10-05T15:10:06.517Z,29.18
2022-10-05T15:12:37.847Z,29.24
2022-10-05T15:15:46.322Z,29.24
2022-10-05T15:18:29.608Z,29.24
2022-10-05T15:21:26.679Z,29.24
2022-10-05T15:24:01.115Z,29.17
2022-10-05T15:26:49.524Z,29.28
2022-10-05T15:29:55.830Z,29.29
2022-10-05T15:32:42.455Z,29.25
2022-10-05T15:35:21.629Z,29.10
2022-10-05T15:38:10.684Z,29.18
2022-10-05T15:40:42.874Z,29.16
2022-10-05T15:43:18.316Z,29.36
2022-10-05T15:46:23.619Z,29.38
2022-10-05T15:49:16.631Z,29.35
2022-10-05T15:51:53.386Z,29.61
2022-10-05T15:54:38.916Z,29.71
2022-10-05T15:57:17.388Z,29.74
2022-10-05T16:00:02.479Z,29.68
2022-10-05T16:03:06.246Z,29.63
2022-10-05T16:06:08.889Z,29.60
2022-10-05T16:08:50.850Z,29.57
2022-10-05T16:11:39.430Z,29.56
2022-10-05T16:14:40.388Z,29.59
2022-10-05T16:17:48.966Z,29.51
2022-10-05T16:20:41.360Z,29.46
2022-10-05T16:23:33.511Z,29.47
2022-10-05T16:26:21.938Z,29.51
2022-10-05T16:29:19.534Z,29.41
2022-10-05T16:31:55.583Z,29.24
2022-10-05T16:34:34.874Z,29.16
2022-10-05T16:37:13.084Z,29.14
2022-10-05T16:39:50.722Z,29.17
2022-10-05T16:43:14.528Z,29.17
2022-10-05T16:45:56.652Z,29.15
2022-10-05T16:48:31.592Z,29.10
2022-10-05T16:51:20.135Z,28.96
2022-10-05T16:54:07.288Z,28.87
2022-10-05T16:56:49.442Z,28.80
2022-10-05T16:59:37.975Z,28.81
2022-10-05T17:02:30.381Z,28.80
2022-10-05T17:05:20.320Z,28.70
2022-10-05T17:07:53.530Z,28.63
2022-10-05T17:10:40.557Z,28.68
2022-10-05T17:13:29.216Z,28.78
2022-10-05T17:16:19.426Z,28.73
2022-10-05T17:19:15.500Z,28.79
2022-10-05T17:21:49.930Z,28.77
2022-10-05T17:24:20.110Z,28.79
2022-10-05T17:27:03.166Z,28.68
2022-10-05T17:29:48.313Z,28.68
2022-10-05T17:32:16.022Z,28.72
2022-10-05T17:35:01.008Z,28.72
2022-10-05T17:37:28.233Z,28.79
2022-10-05T17:39:57.223Z,28.70
2022-10-05T17:42:45.275Z,28.62
2022-10-05T17:45:15.009Z,28.50
2022-10-05T17:47:59.132Z,28.34
2022-10-05T17:51:04.381Z,28.10
2022-10-05T17:53:52.501Z,27.86
2022-10-05T17:56:22.007Z,27.69
2022-10-05T17:58:57.634Z,27.62
2022-10-05T18:01:31.736Z,27.50
2022-10-05T18:04:13.781Z,27.41
2022-10-05T18:07:02.037Z,27.40
2022-10-05T18:09:33.737Z,27.36
2022-10-05T18:12:12.804Z,27.28
2022-10-05T18:15:07.423Z,27.21
2022-10-05T18:17:51.682Z,27.06
2022-10-05T18:20:24.444Z,26.89
2022-10-05T18:23:15.007Z,26.71
2022-10-05T18:25:48.883Z,26.50
2022-10-05T18:28:43.473Z,26.29
2022-10-05T18:31:16.614Z,26.15
2022-10-05T18:33:53.056Z,25.97
2022-10-05T18:36:24.416Z,25.80
2022-10-05T18:39:14.332Z,25.70
2022-10-05T18:41:55.436Z,25.63
2022-10-05T18:44:40.949Z,25.54
2022-10-05T18:47:38.908Z,25.45
2022-10-05T18:50:18.070Z,25.34
2022-10-05T18:52:54.886Z,25.32
2022-10-05T18:55:33.809Z,25.24
2022-10-05T18:58:07.412Z,25.20
2022-10-05T19:00:56.996Z,25.15
2022-10-05T19:03:51.741Z,25.09
2022-10-05T19:06:26.780Z,25.08
2022-10-05T19:09:19.147Z,25.03
2022-10-05T19:12:24.304Z,24.97
2022-10-05T19:15:11.264Z,24.94
2022-10-05T19:18:11.646Z,25.01
2022-10-05T19:21:13.353Z,25.06
2022-10-05T19:24:12.597Z,25.02
2022-10-05T19:27:04.292Z,25.03
2022-10-05T19:29:45.515Z,25.02
2022-10-05T19:32:26.583Z,25.04
2022-10-05T19:35:09.348Z,25.03
2022-10-05T19:38:21.551Z,25.06
2022-10-05T19:41:03.600Z,25.05
2022-10-05T19:44:13.731Z,25.02
2022-10-05T19:46:56.175Z,24.98
2022-10-05T19:49:47.802Z,24.94
2022-10-05T19:52:28.676Z,24.90
2022-10-05T19:55:24.307Z,24.91
2022-10-05T19:57:56.433Z,24.96
2022-10-05T20:00:26.519Z,25.03
2022-10-05T20:03:12.407Z,25.11
2022-10-05T20:05:40.708Z,25.13
2022-10-05T20:08:12.669Z,25.15
2022-10-05T20:10:39.734Z,25.15
2022-10-05T20:13:08.932Z,25.16
2022-10-05T20:15:55.545Z,25.18
2022-10-05T20:19:02.851Z,25.18
2022-10-05T20:21:36.568Z,25.13
2022-10-05T20:24:14.606Z,25.11
2022-10-05T20:27:06.947Z,25.08
2022-10-05T20:29:38.987Z,25.07
2022-10-05T20:32:14.387Z,25.07
2022-10-05T20:34:43.877Z,25.09
2022-10-05T20:37:13.470Z,25.06
2022-10-05T20:39:42.170Z,25.08
2022-10-05T20:42:10.569Z,25.08
2022-10-05T20:44:38.437Z,25.05
2022-10-05T20:47:10.107Z,25.03
2022-10-05T20:49:39.011Z,25.04
2022-10-05T20:52:10.097Z,25.08
2022-10-05T20:54:38.606Z,25.12
2022-10-05T20:57:06.783Z,25.15
2022-10-05T20:59:34.844Z,25.21
2022-10-05T21:02:02.116Z,25.26
2022-10-05T21:04:43.122Z,25.28
2022-10-05T21:07:10.605Z,25.27
2022-10-05T21:09:39.540Z,25.27
2022-10-05T21:12:06.858Z,25.30
2022-10-05T21:14:34.678Z,25.33
2022-10-05T21:17:02.398Z,25.35
2022-10-05T21:19:29.936Z,25.36
2022-10-05T21:22:00.011Z,25.37
2022-10-05T21:24:26.983Z,25.36
2022-10-05T21:26:57.046Z,25.27
2022-10-05T21:29:24.136Z,25.17
2022-10-05T21:31:51.462Z,25.04
2022-10-05T21:34:18.586Z,25.01
2022-10-05T21:36:45.607Z,24.94
2022-10-05T21:39:12.582Z,24.85
2022-10-05T21:41:39.944Z,24.78
2022-10-05T21:44:07.248Z,24.77
2022-10-05T21:46:37.461Z,24.84
2022-10-05T21:49:06.752Z,24.94
2022-10-05T21:51:34.459Z,25.01
2022-10-05T21:54:07.574Z,25.05
2022-10-05T21:56:38.206Z,25.06
2022-10-05T21:59:08.058Z,25.10
2022-10-05T22:01:36.249Z,25.16
2022-10-05T22:04:06.702Z,25.21
2022-10-05T22:06:35.582Z,25.20
2022-10-05T22:09:04.025Z,25.19
2022-10-05T22:11:31.898Z,25.19
2022-10-05T22:14:02.992Z,25.12
2022-10-05T22:16:33.096Z,25.07
2022-10-05T22:19:04.685Z,25.01
2022-10-05T22:21:34.318Z,24.98
2022-10-05T22:24:02.963Z,24.96
2022-10-05T22:26:30.555Z,24.94
2022-10-05T22:28:57.963Z,24.97
2022-10-05T22:31:25.156Z,25.00
2022-10-05T22:33:52.493Z,25.02
2022-10-05T22:36:20.033Z,25.04
2022-10-05T22:38:49.764Z,25.04
2022-10-05T22:41:18.593Z,25.08
2022-10-05T22:43:49.011Z,25.12
2022-10-05T22:46:16.198Z,25.14
2022-10-05T22:48:43.473Z,25.14
2022-10-05T22:51:10.742Z,25.11
2022-10-05T22:53:38.209Z,25.13
2022-10-05T22:56:11.443Z,25.15
2022-10-05T22:58:39.311Z,25.13
2022-10-05T23:01:11.868Z,25.12
2022-10-05T23:03:39.296Z,25.11
2022-10-05T23:06:11.936Z,25.07
2022-10-05T23:08:41.971Z,25.07
2022-10-05T23:11:19.469Z,25.04
2022-10-05T23:13:46.559Z,25.04
2022-10-05T23:16:15.266Z,25.00
2022-10-05T23:18:43.436Z,24.96
2022-10-05T23:21:11.656Z,24.97
2022-10-05T23:23:41.428Z,25.01
2022-10-05T23:26:11.264Z,24.98
2022-10-05T23:28:46.759Z,24.93
2022-10-05T23:31:16.766Z,24.88
2022-10-05T23:33:44.416Z,24.74
2022-10-05T23:36:18.123Z,24.65
2022-10-05T23:38:45.132Z,24.62
2022-10-05T23:41:12.956Z,24.63
2022-10-05T23:43:40.492Z,24.62
2022-10-05T23:46:07.926Z,24.60
2022-10-05T23:48:38.258Z,24.64
2022-10-05T23:51:07.286Z,24.61
2022-10-05T23:53:34.688Z,24.59
2022-10-05T23:56:01.732Z,24.63
2022-10-05T23:58:30.210Z,24.69
